sensor_id;sensor_type;location;lat;lon;timestamp;temperature;humidity
55313;DHT22;46892;45.668;11.756;2022-09-30T00:01:46;13.70;86.10
55313;DHT22;46892;45.668;11.756;2022-09-30T00:04:19;13.70;86.50
55313;DHT22;46892;45.668;11.756;2022-09-30T00:06:46;13.70;86.10
55313;DHT22;46892;45.668;11.756;2022-09-30T00:09:12;13.80;85.50
55313;DHT22;46892;45.668;11.756;2022-09-30T00:11:39;13.80;85.30
55313;DHT22;46892;45.668;11.756;2022-09-30T00:14:06;13.80;85.40
55313;DHT22;46892;45.668;11.756;2022-09-30T00:16:35;13.70;85.60
55313;DHT22;46892;45.668;11.756;2022-09-30T00:19:03;13.60;85.90
55313;DHT22;46892;45.668;11.756;2022-09-30T00:21:31;13.60;85.70
55313;DHT22;46892;45.668;11.756;2022-09-30T00:23:59;13.50;86.60
55313;DHT22;46892;45.668;11.756;2022-09-30T00:26:25;13.50;86.90
55313;DHT22;46892;45.668;11.756;2022-09-30T00:28:55;13.60;86.50
55313;DHT22;46892;45.668;11.756;2022-09-30T00:31:21;13.50;86.10
55313;DHT22;46892;45.668;11.756;2022-09-30T00:33:47;13.50;86.80
55313;DHT22;46892;45.668;11.756;2022-09-30T00:36:42;13.50;86.90
55313;DHT22;46892;45.668;11.756;2022-09-30T00:39:11;13.40;86.30
55313;DHT22;46892;45.668;11.756;2022-09-30T00:41:37;13.40;86.30
55313;DHT22;46892;45.668;11.756;2022-09-30T00:52:35;12.90;87.30
55313;DHT22;46892;45.668;11.756;2022-09-30T00:55:04;12.90;87.60
55313;DHT22;46892;45.668;11.756;2022-09-30T00:57:32;12.80;88.00
55313;DHT22;46892;45.668;11.756;2022-09-30T00:59:58;12.80;88.50
55313;DHT22;46892;45.668;11.756;2022-09-30T01:02:24;12.70;88.80
55313;DHT22;46892;45.668;11.756;2022-09-30T01:04:50;12.70;88.80
55313;DHT22;46892;45.668;11.756;2022-09-30T01:07:16;12.80;88.70
55313;DHT22;46892;45.668;11.756;2022-09-30T01:09:42;12.90;88.10
55313;DHT22;46892;45.668;11.756;2022-09-30T01:12:15;13.00;87.30
55313;DHT22;46892;45.668;11.756;2022-09-30T01:14:42;13.00;86.50
55313;DHT22;46892;45.668;11.756;2022-09-30T01:23:00;13.10;87.90
55313;DHT22;46892;45.668;11.756;2022-09-30T01:31:39;13.20;87.90
55313;DHT22;46892;45.668;11.756;2022-09-30T01:36:46;13.30;86.80
55313;DHT22;46892;45.668;11.756;2022-09-30T01:45:32;13.20;85.70
55313;DHT22;46892;45.668;11.756;2022-09-30T01:48:11;13.20;85.50
55313;DHT22;46892;45.668;11.756;2022-09-30T01:51:01;13.20;85.80
55313;DHT22;46892;45.668;11.756;2022-09-30T01:53:48;13.30;85.40
55313;DHT22;46892;45.668;11.756;2022-09-30T01:56:43;13.30;85.40
55313;DHT22;46892;45.668;11.756;2022-09-30T02:01:41;13.30;85.80
55313;DHT22;46892;45.668;11.756;2022-09-30T02:04:22;13.40;86.60
55313;DHT22;46892;45.668;11.756;2022-09-30T02:06:52;13.30;86.90
55313;DHT22;46892;45.668;11.756;2022-09-30T02:09:31;13.30;87.70
55313;DHT22;46892;45.668;11.756;2022-09-30T02:12:03;13.40;87.80
55313;DHT22;46892;45.668;11.756;2022-09-30T02:14:31;13.30;87.80
55313;DHT22;46892;45.668;11.756;2022-09-30T02:17:11;13.40;87.50
55313;DHT22;46892;45.668;11.756;2022-09-30T02:19:44;13.40;86.80
55313;DHT22;46892;45.668;11.756;2022-09-30T02:22:19;13.50;85.90
55313;DHT22;46892;45.668;11.756;2022-09-30T02:24:49;13.60;86.20
55313;DHT22;46892;45.668;11.756;2022-09-30T02:27:24;13.60;86.40
55313;DHT22;46892;45.668;11.756;2022-09-30T02:29:56;13.60;86.50
55313;DHT22;46892;45.668;11.756;2022-09-30T02:32:49;13.50;87.00
55313;DHT22;46892;45.668;11.756;2022-09-30T02:35:24;13.40;87.60
55313;DHT22;46892;45.668;11.756;2022-09-30T02:38:06;13.50;87.80
55313;DHT22;46892;45.668;11.756;2022-09-30T02:40:49;13.60;87.00
55313;DHT22;46892;45.668;11.756;2022-09-30T02:43:18;13.60;86.70
55313;DHT22;46892;45.668;11.756;2022-09-30T02:45:49;13.50;86.90
55313;DHT22;46892;45.668;11.756;2022-09-30T02:50:57;13.50;87.60
55313;DHT22;46892;45.668;11.756;2022-09-30T02:53:44;13.40;87.70
55313;DHT22;46892;45.668;11.756;2022-09-30T02:56:27;13.50;87.90
55313;DHT22;46892;45.668;11.756;2022-09-30T02:58:56;13.40;87.80
55313;DHT22;46892;45.668;11.756;2022-09-30T03:01:23;13.30;88.00
55313;DHT22;46892;45.668;11.756;2022-09-30T03:03:55;13.30;88.20
55313;DHT22;46892;45.668;11.756;2022-09-30T03:06:22;13.30;88.30
55313;DHT22;46892;45.668;11.756;2022-09-30T03:08:48;13.30;88.50
55313;DHT22;46892;45.668;11.756;2022-09-30T03:11:17;13.20;88.60
55313;DHT22;46892;45.668;11.756;2022-09-30T03:22:45;13.30;88.70
55313;DHT22;46892;45.668;11.756;2022-09-30T03:28:28;13.20;88.80
55313;DHT22;46892;45.668;11.756;2022-09-30T03:36:24;13.20;89.20
55313;DHT22;46892;45.668;11.756;2022-09-30T03:42:25;13.50;88.20
55313;DHT22;46892;45.668;11.756;2022-09-30T03:47:08;13.70;87.80
55313;DHT22;46892;45.668;11.756;2022-09-30T03:49:49;13.80;87.50
55313;DHT22;46892;45.668;11.756;2022-09-30T03:52:16;13.70;87.40
55313;DHT22;46892;45.668;11.756;2022-09-30T03:54:57;13.70;87.80
55313;DHT22;46892;45.668;11.756;2022-09-30T03:57:25;13.70;88.20
55313;DHT22;46892;45.668;11.756;2022-09-30T03:59:57;13.60;88.10
55313;DHT22;46892;45.668;11.756;2022-09-30T04:02:23;13.70;88.30
55313;DHT22;46892;45.668;11.756;2022-09-30T04:04:49;13.80;87.70
55313;DHT22;46892;45.668;11.756;2022-09-30T04:07:14;13.80;88.10
55313;DHT22;46892;45.668;11.756;2022-09-30T04:09:40;13.80;88.00
55313;DHT22;46892;45.668;11.756;2022-09-30T04:12:06;13.80;87.50
55313;DHT22;46892;45.668;11.756;2022-09-30T04:14:32;13.80;87.30
55313;DHT22;46892;45.668;11.756;2022-09-30T04:16:58;13.60;87.20
55313;DHT22;46892;45.668;11.756;2022-09-30T04:19:24;13.60;87.40
55313;DHT22;46892;45.668;11.756;2022-09-30T04:21:51;13.60;87.60
55313;DHT22;46892;45.668;11.756;2022-09-30T04:24:17;13.60;87.90
55313;DHT22;46892;45.668;11.756;2022-09-30T04:26:43;13.50;87.70
55313;DHT22;46892;45.668;11.756;2022-09-30T04:29:09;13.60;87.70
55313;DHT22;46892;45.668;11.756;2022-09-30T04:31:35;13.50;87.70
55313;DHT22;46892;45.668;11.756;2022-09-30T04:34:00;13.60;87.40
55313;DHT22;46892;45.668;11.756;2022-09-30T04:36:26;13.50;87.70
55313;DHT22;46892;45.668;11.756;2022-09-30T04:38:52;13.70;87.10
55313;DHT22;46892;45.668;11.756;2022-09-30T04:41:18;13.80;86.60
55313;DHT22;46892;45.668;11.756;2022-09-30T04:43:46;13.70;86.60
55313;DHT22;46892;45.668;11.756;2022-09-30T04:46:13;13.70;87.00
55313;DHT22;46892;45.668;11.756;2022-09-30T04:48:39;13.70;87.20
55313;DHT22;46892;45.668;11.756;2022-09-30T04:51:04;13.70;87.20
55313;DHT22;46892;45.668;11.756;2022-09-30T04:53:30;13.60;87.30
55313;DHT22;46892;45.668;11.756;2022-09-30T04:55:59;13.50;87.30
55313;DHT22;46892;45.668;11.756;2022-09-30T04:58:26;13.50;87.00
55313;DHT22;46892;45.668;11.756;2022-09-30T05:01:08;13.40;87.10
55313;DHT22;46892;45.668;11.756;2022-09-30T05:21:22;13.30;87.10
55313;DHT22;46892;45.668;11.756;2022-09-30T05:23:48;13.10;87.00
55313;DHT22;46892;45.668;11.756;2022-09-30T05:26:14;13.10;87.00
55313;DHT22;46892;45.668;11.756;2022-09-30T05:28:40;13.00;87.00
55313;DHT22;46892;45.668;11.756;2022-09-30T05:31:07;13.00;87.20
55313;DHT22;46892;45.668;11.756;2022-09-30T05:33:33;13.00;87.40
55313;DHT22;46892;45.668;11.756;2022-09-30T05:36:01;13.00;88.00
55313;DHT22;46892;45.668;11.756;2022-09-30T05:38:27;13.10;87.60
55313;DHT22;46892;45.668;11.756;2022-09-30T05:40:53;13.10;86.90
55313;DHT22;46892;45.668;11.756;2022-09-30T05:43:19;13.10;86.90
55313;DHT22;46892;45.668;11.756;2022-09-30T05:45:55;13.10;86.90
55313;DHT22;46892;45.668;11.756;2022-09-30T05:48:22;13.20;86.80
55313;DHT22;46892;45.668;11.756;2022-09-30T05:50:53;13.20;86.90
55313;DHT22;46892;45.668;11.756;2022-09-30T05:53:19;13.10;86.90
55313;DHT22;46892;45.668;11.756;2022-09-30T05:55:45;13.10;87.00
55313;DHT22;46892;45.668;11.756;2022-09-30T05:58:15;13.10;87.10
55313;DHT22;46892;45.668;11.756;2022-09-30T06:00:43;13.20;87.30
55313;DHT22;46892;45.668;11.756;2022-09-30T06:03:09;13.10;87.50
55313;DHT22;46892;45.668;11.756;2022-09-30T06:05:35;13.20;87.80
55313;DHT22;46892;45.668;11.756;2022-09-30T06:08:01;13.20;88.00
55313;DHT22;46892;45.668;11.756;2022-09-30T06:10:27;13.30;88.20
55313;DHT22;46892;45.668;11.756;2022-09-30T06:12:53;13.30;88.20
55313;DHT22;46892;45.668;11.756;2022-09-30T06:15:18;13.40;88.30
55313;DHT22;46892;45.668;11.756;2022-09-30T06:17:44;13.40;88.40
55313;DHT22;46892;45.668;11.756;2022-09-30T06:20:11;13.50;88.30
55313;DHT22;46892;45.668;11.756;2022-09-30T06:22:37;13.60;88.30
55313;DHT22;46892;45.668;11.756;2022-09-30T06:25:06;13.60;88.20
55313;DHT22;46892;45.668;11.756;2022-09-30T06:27:34;13.70;88.20
55313;DHT22;46892;45.668;11.756;2022-09-30T06:30:01;13.80;88.20
55313;DHT22;46892;45.668;11.756;2022-09-30T06:32:27;13.80;88.30
55313;DHT22;46892;45.668;11.756;2022-09-30T06:34:54;13.90;88.20
55313;DHT22;46892;45.668;11.756;2022-09-30T06:37:24;13.90;88.10
55313;DHT22;46892;45.668;11.756;2022-09-30T06:39:50;14.10;88.30
55313;DHT22;46892;45.668;11.756;2022-09-30T06:42:16;14.30;88.40
55313;DHT22;46892;45.668;11.756;2022-09-30T06:44:43;14.50;87.90
55313;DHT22;46892;45.668;11.756;2022-09-30T06:47:09;14.60;87.10
55313;DHT22;46892;45.668;11.756;2022-09-30T06:49:35;14.80;86.00
55313;DHT22;46892;45.668;11.756;2022-09-30T06:52:01;14.90;85.80
55313;DHT22;46892;45.668;11.756;2022-09-30T06:54:27;14.90;85.90
55313;DHT22;46892;45.668;11.756;2022-09-30T06:56:53;15.00;85.90
55313;DHT22;46892;45.668;11.756;2022-09-30T06:59:22;14.90;85.80
55313;DHT22;46892;45.668;11.756;2022-09-30T07:01:48;14.90;85.50
55313;DHT22;46892;45.668;11.756;2022-09-30T07:04:14;15.00;85.70
55313;DHT22;46892;45.668;11.756;2022-09-30T07:06:41;15.00;85.60
55313;DHT22;46892;45.668;11.756;2022-09-30T07:09:07;15.00;84.80
55313;DHT22;46892;45.668;11.756;2022-09-30T07:11:33;15.10;84.60
55313;DHT22;46892;45.668;11.756;2022-09-30T07:13:59;15.10;84.50
55313;DHT22;46892;45.668;11.756;2022-09-30T07:16:24;15.10;84.80
55313;DHT22;46892;45.668;11.756;2022-09-30T07:18:50;15.20;85.20
55313;DHT22;46892;45.668;11.756;2022-09-30T07:21:16;15.50;86.10
55313;DHT22;46892;45.668;11.756;2022-09-30T07:23:45;15.70;84.70
55313;DHT22;46892;45.668;11.756;2022-09-30T07:26:16;15.90;84.30
55313;DHT22;46892;45.668;11.756;2022-09-30T07:28:43;16.00;81.90
55313;DHT22;46892;45.668;11.756;2022-09-30T07:31:12;16.00;81.90
55313;DHT22;46892;45.668;11.756;2022-09-30T07:33:39;15.90;81.80
55313;DHT22;46892;45.668;11.756;2022-09-30T07:36:06;16.00;81.90
55313;DHT22;46892;45.668;11.756;2022-09-30T07:38:34;15.90;81.60
55313;DHT22;46892;45.668;11.756;2022-09-30T07:41:10;15.80;82.30
55313;DHT22;46892;45.668;11.756;2022-09-30T07:43:36;15.80;82.30
55313;DHT22;46892;45.668;11.756;2022-09-30T07:48:41;15.80;82.20
55313;DHT22;46892;45.668;11.756;2022-09-30T07:51:21;15.80;82.00
55313;DHT22;46892;45.668;11.756;2022-09-30T07:53:56;15.70;83.10
55313;DHT22;46892;45.668;11.756;2022-09-30T07:56:23;15.70;83.70
55313;DHT22;46892;45.668;11.756;2022-09-30T07:58:53;15.70;84.10
55313;DHT22;46892;45.668;11.756;2022-09-30T08:01:19;15.70;84.10
55313;DHT22;46892;45.668;11.756;2022-09-30T08:03:45;15.80;84.30
55313;DHT22;46892;45.668;11.756;2022-09-30T08:06:15;15.80;84.30
55313;DHT22;46892;45.668;11.756;2022-09-30T08:08:42;15.80;83.90
55313;DHT22;46892;45.668;11.756;2022-09-30T08:11:08;15.90;82.90
55313;DHT22;46892;45.668;11.756;2022-09-30T08:13:34;15.90;83.50
55313;DHT22;46892;45.668;11.756;2022-09-30T08:16:00;15.90;83.80
55313;DHT22;46892;45.668;11.756;2022-09-30T08:18:26;15.90;83.30
55313;DHT22;46892;45.668;11.756;2022-09-30T08:20:55;16.00;83.50
55313;DHT22;46892;45.668;11.756;2022-09-30T08:23:21;16.00;83.60
55313;DHT22;46892;45.668;11.756;2022-09-30T08:25:46;16.00;83.90
55313;DHT22;46892;45.668;11.756;2022-09-30T08:28:12;16.10;83.00
55313;DHT22;46892;45.668;11.756;2022-09-30T08:30:39;16.00;83.70
55313;DHT22;46892;45.668;11.756;2022-09-30T08:33:05;16.10;84.90
55313;DHT22;46892;45.668;11.756;2022-09-30T08:35:33;16.10;83.40
55313;DHT22;46892;45.668;11.756;2022-09-30T08:37:59;16.20;84.80
55313;DHT22;46892;45.668;11.756;2022-09-30T08:40:32;16.20;84.00
55313;DHT22;46892;45.668;11.756;2022-09-30T08:51:13;16.40;84.10
55313;DHT22;46892;45.668;11.756;2022-09-30T08:53:45;16.40;82.90
55313;DHT22;46892;45.668;11.756;2022-09-30T08:56:23;16.60;83.00
55313;DHT22;46892;45.668;11.756;2022-09-30T09:01:37;16.70;82.70
55313;DHT22;46892;45.668;11.756;2022-09-30T09:04:05;16.80;82.70
55313;DHT22;46892;45.668;11.756;2022-09-30T09:07:36;16.80;82.10
55313;DHT22;46892;45.668;11.756;2022-09-30T09:18:01;16.80;82.30
55313;DHT22;46892;45.668;11.756;2022-09-30T09:20:33;16.90;82.20
55313;DHT22;46892;45.668;11.756;2022-09-30T09:23:09;16.90;82.30
55313;DHT22;46892;45.668;11.756;2022-09-30T09:25:35;17.00;81.70
55313;DHT22;46892;45.668;11.756;2022-09-30T09:28:04;17.00;81.50
55313;DHT22;46892;45.668;11.756;2022-09-30T09:30:35;17.10;80.50
55313;DHT22;46892;45.668;11.756;2022-09-30T09:33:19;17.10;79.70
55313;DHT22;46892;45.668;11.756;2022-09-30T09:36:02;17.20;79.70
55313;DHT22;46892;45.668;11.756;2022-09-30T09:41:27;17.20;79.70
55313;DHT22;46892;45.668;11.756;2022-09-30T09:44:24;17.20;78.80
55313;DHT22;46892;45.668;11.756;2022-09-30T09:46:52;17.30;80.60
55313;DHT22;46892;45.668;11.756;2022-09-30T09:54:47;17.30;78.80
55313;DHT22;46892;45.668;11.756;2022-09-30T09:57:17;17.40;78.20
55313;DHT22;46892;45.668;11.756;2022-09-30T10:00:07;17.40;78.00
55313;DHT22;46892;45.668;11.756;2022-09-30T10:05:33;17.50;78.70
55313;DHT22;46892;45.668;11.756;2022-09-30T10:08:19;17.50;78.60
55313;DHT22;46892;45.668;11.756;2022-09-30T10:10:47;17.50;78.80
55313;DHT22;46892;45.668;11.756;2022-09-30T10:16:02;17.60;78.60
55313;DHT22;46892;45.668;11.756;2022-09-30T10:18:32;17.60;78.70
55313;DHT22;46892;45.668;11.756;2022-09-30T10:21:07;17.70;79.40
55313;DHT22;46892;45.668;11.756;2022-09-30T10:23:43;17.70;78.90
55313;DHT22;46892;45.668;11.756;2022-09-30T10:26:20;17.70;79.10
55313;DHT22;46892;45.668;11.756;2022-09-30T10:29:08;17.70;79.50
55313;DHT22;46892;45.668;11.756;2022-09-30T10:31:46;17.80;79.50
55313;DHT22;46892;45.668;11.756;2022-09-30T10:34:31;17.80;79.30
55313;DHT22;46892;45.668;11.756;2022-09-30T10:37:01;17.90;79.10
55313;DHT22;46892;45.668;11.756;2022-09-30T10:39:29;17.80;78.40
55313;DHT22;46892;45.668;11.756;2022-09-30T10:42:07;17.80;78.30
55313;DHT22;46892;45.668;11.756;2022-09-30T10:44:43;17.80;78.30
55313;DHT22;46892;45.668;11.756;2022-09-30T10:47:15;17.80;78.50
55313;DHT22;46892;45.668;11.756;2022-09-30T10:49:49;17.80;78.60
55313;DHT22;46892;45.668;11.756;2022-09-30T10:52:23;17.80;78.60
55313;DHT22;46892;45.668;11.756;2022-09-30T10:54:58;17.80;79.10
55313;DHT22;46892;45.668;11.756;2022-09-30T10:57:32;17.80;79.60
55313;DHT22;46892;45.668;11.756;2022-09-30T11:05:17;17.70;80.40
55313;DHT22;46892;45.668;11.756;2022-09-30T11:07:58;17.70;80.40
55313;DHT22;46892;45.668;11.756;2022-09-30T11:11:09;17.70;80.10
55313;DHT22;46892;45.668;11.756;2022-09-30T11:16:41;17.80;80.20
55313;DHT22;46892;45.668;11.756;2022-09-30T11:19:17;18.00;80.00
55313;DHT22;46892;45.668;11.756;2022-09-30T11:21:52;17.90;79.60
55313;DHT22;46892;45.668;11.756;2022-09-30T11:27:17;17.90;80.10
55313;DHT22;46892;45.668;11.756;2022-09-30T11:33:00;18.00;79.00
55313;DHT22;46892;45.668;11.756;2022-09-30T11:44:03;17.90;78.50
55313;DHT22;46892;45.668;11.756;2022-09-30T11:52:25;17.90;79.00
55313;DHT22;46892;45.668;11.756;2022-09-30T12:00:14;17.90;79.30
55313;DHT22;46892;45.668;11.756;2022-09-30T12:02:47;18.00;80.00
55313;DHT22;46892;45.668;11.756;2022-09-30T12:05:23;18.00;79.50
55313;DHT22;46892;45.668;11.756;2022-09-30T12:08:17;18.00;78.70
55313;DHT22;46892;45.668;11.756;2022-09-30T12:13:23;17.90;79.20
55313;DHT22;46892;45.668;11.756;2022-09-30T12:15:53;17.80;79.70
55313;DHT22;46892;45.668;11.756;2022-09-30T12:18:35;17.70;79.60
55313;DHT22;46892;45.668;11.756;2022-09-30T12:21:21;17.80;79.50
55313;DHT22;46892;45.668;11.756;2022-09-30T12:23:53;17.70;80.90
55313;DHT22;46892;45.668;11.756;2022-09-30T12:26:23;17.60;81.00
55313;DHT22;46892;45.668;11.756;2022-09-30T12:29:01;17.60;81.20
55313;DHT22;46892;45.668;11.756;2022-09-30T12:43:29;17.60;81.70
55313;DHT22;46892;45.668;11.756;2022-09-30T12:48:56;17.40;82.50
55313;DHT22;46892;45.668;11.756;2022-09-30T12:51:29;17.40;82.40
55313;DHT22;46892;45.668;11.756;2022-09-30T12:54:30;17.40;83.00
55313;DHT22;46892;45.668;11.756;2022-09-30T12:57:04;17.30;83.00
55313;DHT22;46892;45.668;11.756;2022-09-30T12:59:36;17.30;83.50
55313;DHT22;46892;45.668;11.756;2022-09-30T13:02:02;17.40;83.60
55313;DHT22;46892;45.668;11.756;2022-09-30T13:04:38;17.30;83.80
55313;DHT22;46892;45.668;11.756;2022-09-30T13:07:11;17.30;83.30
55313;DHT22;46892;45.668;11.756;2022-09-30T13:09:59;17.30;83.30
55313;DHT22;46892;45.668;11.756;2022-09-30T13:12:42;17.20;84.30
55313;DHT22;46892;45.668;11.756;2022-09-30T13:17:52;17.20;84.70
55313;DHT22;46892;45.668;11.756;2022-09-30T13:20:50;17.20;85.00
55313;DHT22;46892;45.668;11.756;2022-09-30T13:31:30;17.00;86.00
55313;DHT22;46892;45.668;11.756;2022-09-30T13:36:38;17.10;85.50
55313;DHT22;46892;45.668;11.756;2022-09-30T13:42:34;17.00;85.80
55313;DHT22;46892;45.668;11.756;2022-09-30T13:45:30;17.00;85.80
55313;DHT22;46892;45.668;11.756;2022-09-30T13:50:49;16.90;86.30
55313;DHT22;46892;45.668;11.756;2022-09-30T13:53:36;16.80;86.40
55313;DHT22;46892;45.668;11.756;2022-09-30T13:56:17;16.80;86.30
55313;DHT22;46892;45.668;11.756;2022-09-30T14:01:57;16.80;86.60
55313;DHT22;46892;45.668;11.756;2022-09-30T14:18:07;16.80;87.20
55313;DHT22;46892;45.668;11.756;2022-09-30T14:23:45;16.70;87.70
55313;DHT22;46892;45.668;11.756;2022-09-30T14:31:44;16.70;87.80
55313;DHT22;46892;45.668;11.756;2022-09-30T14:34:15;16.70;88.20
55313;DHT22;46892;45.668;11.756;2022-09-30T14:36:43;16.70;88.20
55313;DHT22;46892;45.668;11.756;2022-09-30T14:39:19;16.60;88.50
55313;DHT22;46892;45.668;11.756;2022-09-30T14:41:53;16.60;88.60
55313;DHT22;46892;45.668;11.756;2022-09-30T14:44:22;16.60;88.60
55313;DHT22;46892;45.668;11.756;2022-09-30T14:46:50;16.60;88.70
55313;DHT22;46892;45.668;11.756;2022-09-30T14:49:19;16.60;88.60
55313;DHT22;46892;45.668;11.756;2022-09-30T14:51:47;16.50;88.60
55313;DHT22;46892;45.668;11.756;2022-09-30T14:54:22;16.50;88.60
55313;DHT22;46892;45.668;11.756;2022-09-30T14:56:49;16.50;88.60
55313;DHT22;46892;45.668;11.756;2022-09-30T14:59:29;16.40;88.70
55313;DHT22;46892;45.668;11.756;2022-09-30T15:02:09;16.50;88.80
55313;DHT22;46892;45.668;11.756;2022-09-30T15:04:39;16.50;88.90
55313;DHT22;46892;45.668;11.756;2022-09-30T15:07:11;16.50;89.00
55313;DHT22;46892;45.668;11.756;2022-09-30T15:09:42;16.50;89.00
55313;DHT22;46892;45.668;11.756;2022-09-30T15:12:12;16.50;89.10
55313;DHT22;46892;45.668;11.756;2022-09-30T15:14:50;16.50;89.10
55313;DHT22;46892;45.668;11.756;2022-09-30T15:17:25;16.50;89.30
55313;DHT22;46892;45.668;11.756;2022-09-30T15:19:55;16.50;89.40
55313;DHT22;46892;45.668;11.756;2022-09-30T15:22:23;16.50;89.30
55313;DHT22;46892;45.668;11.756;2022-09-30T15:24:51;16.50;89.30
55313;DHT22;46892;45.668;11.756;2022-09-30T15:27:27;16.40;89.20
55313;DHT22;46892;45.668;11.756;2022-09-30T15:32:39;16.40;88.80
55313;DHT22;46892;45.668;11.756;2022-09-30T15:35:06;16.30;88.80
55313;DHT22;46892;45.668;11.756;2022-09-30T15:37:32;16.30;88.90
55313;DHT22;46892;45.668;11.756;2022-09-30T15:39:59;16.30;88.90
55313;DHT22;46892;45.668;11.756;2022-09-30T15:42:58;16.30;88.80
55313;DHT22;46892;45.668;11.756;2022-09-30T15:48:00;16.20;88.90
55313;DHT22;46892;45.668;11.756;2022-09-30T15:53:19;16.20;89.10
55313;DHT22;46892;45.668;11.756;2022-09-30T15:55:57;16.20;89.20
55313;DHT22;46892;45.668;11.756;2022-09-30T16:01:19;16.20;89.00
55313;DHT22;46892;45.668;11.756;2022-09-30T16:06:23;16.20;89.10
55313;DHT22;46892;45.668;11.756;2022-09-30T16:08:56;16.20;89.10
55313;DHT22;46892;45.668;11.756;2022-09-30T16:11:37;16.30;89.00
55313;DHT22;46892;45.668;11.756;2022-09-30T16:14:09;16.30;88.60
55313;DHT22;46892;45.668;11.756;2022-09-30T16:16:36;16.30;88.60
55313;DHT22;46892;45.668;11.756;2022-09-30T16:19:03;16.30;88.70
55313;DHT22;46892;45.668;11.756;2022-09-30T16:21:40;16.20;88.80
55313;DHT22;46892;45.668;11.756;2022-09-30T16:26:51;16.20;88.60
55313;DHT22;46892;45.668;11.756;2022-09-30T16:29:17;16.10;88.60
55313;DHT22;46892;45.668;11.756;2022-09-30T16:31:43;16.10;88.70
55313;DHT22;46892;45.668;11.756;2022-09-30T16:34:25;16.10;88.80
55313;DHT22;46892;45.668;11.756;2022-09-30T16:37:03;16.20;88.80
55313;DHT22;46892;45.668;11.756;2022-09-30T16:39:30;16.10;88.80
55313;DHT22;46892;45.668;11.756;2022-09-30T16:41:55;16.00;88.80
55313;DHT22;46892;45.668;11.756;2022-09-30T16:44:21;16.00;89.00
55313;DHT22;46892;45.668;11.756;2022-09-30T16:46:49;16.00;89.00
55313;DHT22;46892;45.668;11.756;2022-09-30T16:49:18;16.00;89.10
55313;DHT22;46892;45.668;11.756;2022-09-30T16:51:44;16.00;89.10
55313;DHT22;46892;45.668;11.756;2022-09-30T16:54:10;16.00;89.10
55313;DHT22;46892;45.668;11.756;2022-09-30T16:56:36;16.10;88.90
55313;DHT22;46892;45.668;11.756;2022-09-30T16:59:03;16.20;88.80
55313;DHT22;46892;45.668;11.756;2022-09-30T17:01:29;16.20;88.50
55313;DHT22;46892;45.668;11.756;2022-09-30T17:03:55;16.10;88.60
55313;DHT22;46892;45.668;11.756;2022-09-30T17:06:27;16.10;88.70
55313;DHT22;46892;45.668;11.756;2022-09-30T17:08:53;16.10;88.90
55313;DHT22;46892;45.668;11.756;2022-09-30T17:11:23;16.10;88.90
55313;DHT22;46892;45.668;11.756;2022-09-30T17:13:51;16.00;89.00
55313;DHT22;46892;45.668;11.756;2022-09-30T17:16:17;16.10;89.00
55313;DHT22;46892;45.668;11.756;2022-09-30T17:18:42;16.10;88.90
55313;DHT22;46892;45.668;11.756;2022-09-30T17:21:08;16.10;88.90
55313;DHT22;46892;45.668;11.756;2022-09-30T17:23:34;16.00;89.00
55313;DHT22;46892;45.668;11.756;2022-09-30T17:26:03;16.00;88.90
55313;DHT22;46892;45.668;11.756;2022-09-30T17:28:29;16.00;89.00
55313;DHT22;46892;45.668;11.756;2022-09-30T17:30:55;16.00;88.90
55313;DHT22;46892;45.668;11.756;2022-09-30T17:33:21;16.00;88.80
55313;DHT22;46892;45.668;11.756;2022-09-30T17:35:59;16.00;88.70
55313;DHT22;46892;45.668;11.756;2022-09-30T17:38:25;16.00;88.80
55313;DHT22;46892;45.668;11.756;2022-09-30T17:40:51;15.90;88.80
55313;DHT22;46892;45.668;11.756;2022-09-30T17:43:35;15.90;88.80
55313;DHT22;46892;45.668;11.756;2022-09-30T17:46:01;15.90;88.80
55313;DHT22;46892;45.668;11.756;2022-09-30T17:48:27;15.90;88.70
55313;DHT22;46892;45.668;11.756;2022-09-30T17:50:52;15.80;88.60
55313;DHT22;46892;45.668;11.756;2022-09-30T17:53:19;15.80;88.60
55313;DHT22;46892;45.668;11.756;2022-09-30T17:55:47;15.80;88.70
55313;DHT22;46892;45.668;11.756;2022-09-30T17:58:14;15.80;88.70
55313;DHT22;46892;45.668;11.756;2022-09-30T18:00:40;15.70;88.70
55313;DHT22;46892;45.668;11.756;2022-09-30T18:03:06;15.70;88.60
55313;DHT22;46892;45.668;11.756;2022-09-30T18:05:34;15.70;88.40
55313;DHT22;46892;45.668;11.756;2022-09-30T18:07:59;15.70;88.10
55313;DHT22;46892;45.668;11.756;2022-09-30T18:10:26;15.70;87.90
55313;DHT22;46892;45.668;11.756;2022-09-30T18:12:53;15.70;87.80
55313;DHT22;46892;45.668;11.756;2022-09-30T18:15:22;15.80;87.80
55313;DHT22;46892;45.668;11.756;2022-09-30T18:17:48;15.80;87.60
55313;DHT22;46892;45.668;11.756;2022-09-30T18:20:14;15.70;87.80
55313;DHT22;46892;45.668;11.756;2022-09-30T18:22:40;15.70;87.90
55313;DHT22;46892;45.668;11.756;2022-09-30T18:25:07;15.70;88.00
55313;DHT22;46892;45.668;11.756;2022-09-30T18:28:05;15.70;88.00
55313;DHT22;46892;45.668;11.756;2022-09-30T18:30:37;15.70;88.20
55313;DHT22;46892;45.668;11.756;2022-09-30T18:33:04;15.70;88.30
55313;DHT22;46892;45.668;11.756;2022-09-30T18:35:34;15.70;88.30
55313;DHT22;46892;45.668;11.756;2022-09-30T18:38:00;15.70;88.40
55313;DHT22;46892;45.668;11.756;2022-09-30T18:40:27;15.70;88.70
55313;DHT22;46892;45.668;11.756;2022-09-30T18:42:55;15.70;88.80
55313;DHT22;46892;45.668;11.756;2022-09-30T18:45:25;15.70;88.90
55313;DHT22;46892;45.668;11.756;2022-09-30T18:47:54;15.70;88.90
55313;DHT22;46892;45.668;11.756;2022-09-30T18:50:20;15.70;88.90
55313;DHT22;46892;45.668;11.756;2022-09-30T18:52:48;15.70;88.90
55313;DHT22;46892;45.668;11.756;2022-09-30T18:55:15;15.70;88.90
55313;DHT22;46892;45.668;11.756;2022-09-30T18:57:41;15.70;88.90
55313;DHT22;46892;45.668;11.756;2022-09-30T19:00:08;15.60;88.90
55313;DHT22;46892;45.668;11.756;2022-09-30T19:02:35;15.60;88.80
55313;DHT22;46892;45.668;11.756;2022-09-30T19:05:01;15.60;88.90
55313;DHT22;46892;45.668;11.756;2022-09-30T19:07:27;15.50;89.00
55313;DHT22;46892;45.668;11.756;2022-09-30T19:09:53;15.50;89.10
55313;DHT22;46892;45.668;11.756;2022-09-30T19:12:19;15.50;89.10
55313;DHT22;46892;45.668;11.756;2022-09-30T19:14:45;15.50;89.10
55313;DHT22;46892;45.668;11.756;2022-09-30T19:17:12;15.60;89.00
55313;DHT22;46892;45.668;11.756;2022-09-30T19:19:38;15.50;88.90
55313;DHT22;46892;45.668;11.756;2022-09-30T19:22:08;15.50;88.90